Time;durP1;ratioP1;P1;durP2;ratioP2;P2;SDS_P1;SDS_P2;PMS_P1;PMS_P2;Temp;Humidity;BMP_temperature;BMP_pressure;BME280_temperature;BME280_humidity;BME280_pressure;Samples;Min_cycle;Max_cycle;Signal;HPM_P1;HPM_P2
2024/01/12 00:01:52;;;;;;;15.63;14.23;;;;;;;21.57;23.29;95028.47;6060574;28;109191;-57
2024/01/12 00:04:55;;;;;;;15.43;14.07;;;;;;;21.56;22.88;95036.75;6049151;28;110102;-56
2024/01/12 00:07:58;;;;;;;15.47;14.07;;;;;;;21.56;22.97;95029.53;6047938;28;109475;-58
2024/01/12 00:11:01;;;;;;;15.67;14.17;;;;;;;21.56;23.19;95029.53;6053810;28;109255;-58
2024/01/12 00:14:06;;;;;;;14.43;13.13;;;;;;;21.55;22.90;95037.84;6046975;28;110126;-58
2024/01/12 00:17:09;;;;;;;15.43;14.03;;;;;;;21.56;23.19;95037.53;6032034;28;109878;-59
2024/01/12 00:20:12;;;;;;;14.57;13.17;;;;;;;21.55;23.37;95043.16;6060213;28;109227;-58
2024/01/12 00:23:15;;;;;;;15.50;14.03;;;;;;;21.53;23.16;95035.47;6054181;28;109274;-58
2024/01/12 00:26:19;;;;;;;15.00;13.50;;;;;;;21.53;23.30;95038.16;6066553;28;109211;-58
2024/01/12 00:29:23;;;;;;;14.07;12.70;;;;;;;21.54;23.21;95036.25;6047895;28;110238;-58
2024/01/12 00:32:26;;;;;;;15.33;13.83;;;;;;;21.52;23.13;95045.34;6072633;28;109068;-58
2024/01/12 00:35:29;;;;;;;15.07;13.70;;;;;;;21.54;22.71;95044.25;6064799;28;110501;-57
2024/01/12 00:38:32;;;;;;;15.63;14.13;;;;;;;21.53;22.79;95054.13;6056081;28;110841;-58
2024/01/12 00:41:35;;;;;;;15.13;13.73;;;;;;;21.52;22.77;95042.69;6048778;28;110015;-57
2024/01/12 00:44:40;;;;;;;15.77;14.27;;;;;;;21.52;22.68;95040.03;6052809;28;109256;-58
2024/01/12 00:47:43;;;;;;;14.70;13.33;;;;;;;21.52;22.64;95042.69;6064515;28;109167;-58
2024/01/12 00:50:47;;;;;;;14.53;13.33;;;;;;;21.54;22.73;95044.25;6054241;28;109120;-58
2024/01/12 00:53:50;;;;;;;14.70;13.27;;;;;;;21.52;22.92;95037.34;6081320;28;109003;-52
2024/01/12 00:56:54;;;;;;;15.37;13.97;;;;;;;21.56;22.77;95031.41;6069696;28;110404;-52
2024/01/12 00:59:58;;;;;;;13.60;12.30;;;;;;;21.53;22.52;95027.50;6051638;28;109989;-52
2024/01/12 01:03:02;;;;;;;13.40;12.20;;;;;;;21.55;22.49;95032.50;6052123;28;109189;-52
2024/01/12 01:06:06;;;;;;;13.80;12.60;;;;;;;21.52;22.63;95024.03;6069943;28;109077;-52
2024/01/12 01:09:09;;;;;;;13.10;11.90;;;;;;;21.54;22.44;95023.75;6067181;28;109341;-53
2024/01/12 01:12:14;;;;;;;13.40;12.10;;;;;;;21.57;22.81;95022.34;6066927;28;110093;-53
2024/01/12 01:15:19;;;;;;;12.90;11.70;;;;;;;21.55;22.95;95025.31;6057406;28;110145;-52
2024/01/12 01:18:22;;;;;;;14.17;12.87;;;;;;;21.54;22.75;95013.09;6055887;28;110075;-52
2024/01/12 01:21:26;;;;;;;13.60;12.30;;;;;;;21.57;22.52;95017.03;6068412;28;110761;-52
2024/01/12 01:24:29;;;;;;;12.00;11.00;;;;;;;21.55;22.26;95014.66;6057630;28;110150;-53
2024/01/12 01:27:32;;;;;;;12.77;11.60;;;;;;;21.52;22.70;95010.72;6068920;28;109265;-52
2024/01/12 01:30:36;;;;;;;12.00;10.80;;;;;;;21.48;22.64;94995.63;6064488;28;110074;-52
2024/01/12 01:33:40;;;;;;;13.03;11.87;;;;;;;21.52;22.42;94997.41;6062292;28;109787;-52
2024/01/12 01:36:43;;;;;;;12.13;11.03;;;;;;;21.50;22.78;94990.81;6051479;28;109108;-52
2024/01/12 01:39:46;;;;;;;12.57;11.27;;;;;;;21.52;22.48;94994.75;6062776;28;109296;-52
2024/01/12 01:42:49;;;;;;;12.40;11.30;;;;;;;21.50;22.89;94996.91;6053419;28;110743;-52
2024/01/12 01:45:54;;;;;;;11.13;10.10;;;;;;;21.51;22.72;94993.19;6053551;28;110235;-52
2024/01/12 01:48:58;;;;;;;10.90;9.90;;;;;;;21.54;22.72;94986.47;6028673;28;110245;-52
2024/01/12 01:52:03;;;;;;;11.70;10.60;;;;;;;21.51;22.60;94979.09;6064269;28;109754;-52
2024/01/12 01:55:07;;;;;;;12.20;11.10;;;;;;;21.54;22.41;94967.81;6063571;28;109035;-52
2024/01/12 01:58:11;;;;;;;11.77;10.67;;;;;;;21.55;22.50;94976.59;6044201;28;110184;-54
2024/01/12 02:01:16;;;;;;;11.20;10.20;;;;;;;21.55;22.37;94963.28;6058574;28;109862;-52
2024/01/12 02:04:20;;;;;;;10.37;9.47;;;;;;;21.57;22.54;94963.75;6060083;28;109121;-58
2024/01/12 02:07:24;;;;;;;11.33;10.30;;;;;;;21.57;22.44;94966.44;6056734;28;109329;-58
2024/01/12 02:10:27;;;;;;;11.00;10.00;;;;;;;21.58;22.25;94962.69;6051561;28;109110;-57
2024/01/12 02:13:30;;;;;;;10.50;9.60;;;;;;;21.56;22.49;94962.97;6061760;28;110102;-58
2024/01/12 02:16:35;;;;;;;10.73;9.83;;;;;;;21.56;22.08;94968.31;6062446;28;109075;-57
2024/01/12 02:19:38;;;;;;;10.10;9.20;;;;;;;21.55;22.54;94972.06;6062984;28;109191;-58
2024/01/12 02:22:43;;;;;;;10.57;9.67;;;;;;;21.55;22.32;94976.59;6045580;28;109968;-57
2024/01/12 02:25:46;;;;;;;10.97;9.93;;;;;;;21.55;22.56;94974.72;6062048;28;109225;-58
2024/01/12 02:28:49;;;;;;;10.80;9.80;;;;;;;21.51;22.56;94958.56;6055509;28;110126;-56
2024/01/12 02:31:53;;;;;;;9.90;8.90;;;;;;;21.52;22.22;94960.16;6050258;28;109149;-55
2024/01/12 02:34:56;;;;;;;10.30;9.30;;;;;;;21.52;22.48;94968.13;6054353;28;109259;-57
2024/01/12 02:38:01;;;;;;;10.50;9.53;;;;;;;21.50;22.23;94964.97;6048553;28;109665;-58
2024/01/12 02:41:04;;;;;;;9.77;8.97;;;;;;;21.50;22.32;94964.19;6062256;28;109301;-57
2024/01/12 02:44:07;;;;;;;10.00;9.10;;;;;;;21.54;22.11;94964.38;6038767;28;109283;-56
2024/01/12 02:47:12;;;;;;;10.77;9.77;;;;;;;21.51;22.31;94966.56;6055289;28;109300;-57
2024/01/12 02:50:15;;;;;;;9.90;8.97;;;;;;;21.49;22.10;94963.38;6049695;28;110128;-57
2024/01/12 02:53:20;;;;;;;10.27;9.37;;;;;;;21.51;22.09;94966.56;6058751;28;110222;-56
2024/01/12 02:56:23;;;;;;;9.67;8.77;;;;;;;21.51;22.04;94979.09;6051070;28;109242;-56
2024/01/12 02:59:26;;;;;;;10.33;9.33;;;;;;;21.51;22.08;94979.88;6059452;28;110126;-57
2024/01/12 03:02:30;;;;;;;10.37;9.47;;;;;;;21.50;21.97;94974.81;6060049;28;109044;-57
2024/01/12 03:05:33;;;;;;;9.83;8.93;;;;;;;21.50;22.19;94980.16;6047415;28;109277;-55
2024/01/12 03:08:37;;;;;;;9.60;8.70;;;;;;;21.50;22.13;94980.94;6047925;28;109496;-57
2024/01/12 03:11:41;;;;;;;9.40;8.60;;;;;;;21.50;21.70;94967.63;6061101;28;109005;-57
2024/01/12 03:14:44;;;;;;;9.37;8.53;;;;;;;21.51;21.93;94963.13;6045286;28;110111;-57
2024/01/12 03:17:47;;;;;;;9.90;9.00;;;;;;;21.49;22.13;94974.03;6059856;28;109078;-57
2024/01/12 03:20:50;;;;;;;9.47;8.60;;;;;;;21.50;22.32;94967.63;6048995;28;109371;-56
2024/01/12 03:23:55;;;;;;;9.40;8.60;;;;;;;21.48;22.24;94967.13;6054552;28;109999;-57
2024/01/12 03:26:58;;;;;;;9.60;8.73;;;;;;;21.51;22.23;94968.44;6055638;28;109242;-57
2024/01/12 03:30:01;;;;;;;9.10;8.30;;;;;;;21.51;22.14;94968.44;6048678;28;109010;-57
2024/01/12 03:33:05;;;;;;;8.97;8.07;;;;;;;21.52;21.88;94962.81;6039676;28;109027;-54
2024/01/12 03:36:10;;;;;;;9.87;8.97;;;;;;;21.50;21.76;94958.84;6059969;28;109070;-57
2024/01/12 03:39:14;;;;;;;10.07;9.10;;;;;;;21.45;22.05;94946.47;6061891;28;109290;-58
2024/01/12 03:42:17;;;;;;;9.60;8.80;;;;;;;21.52;21.84;94957.47;6142922;28;109135;-58
2024/01/12 03:45:20;;;;;;;8.27;7.57;;;;;;;21.52;21.76;94957.47;6061467;28;109539;-57
2024/01/12 03:48:23;;;;;;;9.13;8.30;;;;;;;21.50;21.96;94949.00;6055376;28;109458;-57
2024/01/12 03:51:27;;;;;;;9.60;8.80;;;;;;;21.50;21.75;94954.31;6057297;28;109751;-52
2024/01/12 03:54:31;;;;;;;8.93;8.20;;;;;;;21.51;21.79;94955.13;6034208;28;110156;-56
2024/01/12 03:57:34;;;;;;;9.57;8.77;;;;;;;21.51;21.57;94955.91;6058309;28;110049;-57
2024/01/12 04:00:37;;;;;;;9.40;8.60;;;;;;;21.51;21.66;94966.56;6060318;28;110218;-57
2024/01/12 04:03:41;;;;;;;8.60;7.90;;;;;;;21.50;21.78;94962.28;6048797;28;109149;-55
2024/01/12 04:06:44;;;;;;;9.27;8.47;;;;;;;21.51;21.99;94952.47;6051798;28;109074;-57
2024/01/12 04:09:49;;;;;;;8.97;8.23;;;;;;;21.51;22.04;94950.59;6066434;28;110028;-57
2024/01/12 04:12:52;;;;;;;8.87;7.97;;;;;;;21.57;21.88;94958.44;6059886;28;109267;-56
2024/01/12 04:15:55;;;;;;;8.50;7.70;;;;;;;21.59;21.82;94951.72;6048144;28;109074;-57
2024/01/12 04:18:58;;;;;;;9.10;8.30;;;;;;;21.60;22.07;94953.28;6060509;28;111832;-57
2024/01/12 04:22:01;;;;;;;9.37;8.67;;;;;;;21.36;22.45;94961.59;6059392;28;110356;-58
2024/01/12 04:25:06;;;;;;;31.53;28.93;;;;;;;;;;6062403;28;109826;-55
2024/01/12 04:28:09;;;;;;;20.00;18.50;;;;;;;20.92;23.37;94954.31;6050306;28;108977;-53
2024/01/12 04:31:12;;;;;;;19.47;17.50;;;;;;;21.28;22.90;94962.31;6037542;28;110079;-53
2024/01/12 04:34:16;;;;;;;15.20;14.00;;;;;;;21.39;22.63;94945.03;6037184;28;108786;-54
2024/01/12 04:37:21;;;;;;;19.80;18.20;;;;;;;21.12;23.28;94950.44;6053704;28;110277;-57
2024/01/12 04:40:26;;;;;;;21.20;19.50;;;;;;;20.74;23.85;94950.72;6031913;28;110219;-56
2024/01/12 04:43:29;;;;;;;20.57;18.63;;;;;;;20.56;24.11;94956.97;6037731;28;110035;-54
2024/01/12 04:46:32;;;;;;;18.77;17.27;;;;;;;20.67;23.98;94958.34;6058638;28;110341;-59
2024/01/12 04:49:35;;;;;;;19.53;17.70;;;;;;;20.58;24.53;94966.22;6038139;28;110244;-59
2024/01/12 04:52:39;;;;;;;18.53;16.83;;;;;;;20.52;24.36;94958.66;6055337;28;109031;-59
2024/01/12 04:55:43;;;;;;;17.67;15.93;;;;;;;20.55;24.74;94958.06;6046412;28;109649;-56
2024/01/12 04:58:46;;;;;;;16.27;14.73;;;;;;;20.69;24.29;94958.03;6057824;28;109229;-58
2024/01/12 05:01:49;;;;;;;14.13;12.90;;;;;;;20.59;24.17;94969.66;6036743;28;109117;-56
2024/01/12 05:04:52;;;;;;;14.60;13.20;;;;;;;20.53;24.38;94968.97;6055069;28;109171;-56
2024/01/12 05:07:55;;;;;;;13.60;12.30;;;;;;;20.54;24.30;94981.19;6081744;28;109127;-56
2024/01/12 05:11:00;;;;;;;12.83;11.63;;;;;;;20.75;24.92;94970.91;6142045;28;110167;-58
2024/01/12 05:14:03;;;;;;;11.87;10.87;;;;;;;20.86;24.56;94966.97;6048902;28;109060;-56
2024/01/12 05:17:06;;;;;;;11.33;10.23;;;;;;;20.80;24.22;94968.13;6042806;28;109863;-55
2024/01/12 05:20:10;;;;;;;12.23;10.93;;;;;;;20.75;23.96;94978.88;6061519;28;109307;-56
2024/01/12 05:23:13;;;;;;;11.03;10.03;;;;;;;20.72;24.01;94966.19;6047014;28;110420;-55
2024/01/12 05:26:18;;;;;;;11.07;10.17;;;;;;;20.70;23.90;94973.69;6039231;28;109027;-56
2024/01/12 05:29:21;;;;;;;9.93;9.03;;;;;;;20.70;24.07;94988.84;6040061;28;110012;-56
2024/01/12 05:32:24;;;;;;;10.70;9.80;;;;;;;20.68;24.18;94999.00;6039598;28;109555;-56
2024/01/12 05:35:27;;;;;;;9.40;8.60;;;;;;;20.68;24.18;95006.97;6029380;28;110111;-54
2024/01/12 05:38:30;;;;;;;10.10;9.03;;;;;;;20.66;24.24;94998.50;6039734;28;109261;-54
2024/01/12 05:41:35;;;;;;;10.57;9.57;;;;;;;20.65;24.27;95004.88;6040006;28;109146;-54
2024/01/12 05:44:38;;;;;;;10.10;9.20;;;;;;;20.62;24.29;94992.97;6040170;28;110317;-54
2024/01/12 05:47:41;;;;;;;10.43;9.47;;;;;;;20.65;24.24;94996.91;6029131;28;109119;-59
2024/01/12 05:50:44;;;;;;;9.50;8.60;;;;;;;20.63;24.21;95002.53;6039772;28;109500;-55
2024/01/12 05:53:47;;;;;;;9.67;8.77;;;;;;;20.61;24.16;95010.81;6038849;28;110165;-54
2024/01/12 05:56:52;;;;;;;10.70;9.70;;;;;;;20.58;24.11;94999.97;6034571;28;110071;-54
2024/01/12 05:59:55;;;;;;;9.73;8.93;;;;;;;20.60;24.10;94998.59;6035062;28;110958;-55
2024/01/12 06:02:58;;;;;;;10.30;9.40;;;;;;;20.62;24.23;94998.31;6039457;28;109297;-54
2024/01/12 06:06:03;;;;;;;9.57;8.77;;;;;;;20.61;24.27;94992.19;6039563;28;109225;-54
2024/01/12 06:09:06;;;;;;;10.00;9.10;;;;;;;20.63;24.08;94999.88;6029270;28;109712;-54
2024/01/12 06:12:11;;;;;;;10.17;9.20;;;;;;;20.61;23.93;94994.84;6039191;28;109036;-55
2024/01/12 06:15:14;;;;;;;10.60;9.60;;;;;;;20.60;24.15;95001.25;6039269;28;110109;-54
2024/01/12 06:18:18;;;;;;;10.37;9.47;;;;;;;20.60;24.22;94997.81;6042144;28;109482;-54
2024/01/12 06:21:21;;;;;;;10.07;9.07;;;;;;;20.61;24.18;94999.38;6052451;28;109313;-54
2024/01/12 06:24:24;;;;;;;11.13;9.53;;;;;;;20.60;24.03;95008.44;6050165;28;109863;-55
2024/01/12 06:27:28;;;;;;;9.60;8.60;;;;;;;20.59;24.23;94996.25;6039355;28;110249;-55
2024/01/12 06:30:32;;;;;;;9.70;8.80;;;;;;;20.60;23.98;95003.13;6038352;28;110189;-55
2024/01/12 06:33:35;;;;;;;8.93;8.03;;;;;;;20.59;24.12;94999.69;6036320;28;109306;-55
2024/01/12 06:36:43;;;;;;;11.50;9.37;;;;;;;20.61;24.04;95005.50;6062621;28;110186;-55
2024/01/12 06:39:46;;;;;;;9.33;8.53;;;;;;;20.58;24.21;95010.63;6062489;28;109388;-55
2024/01/12 06:42:51;;;;;;;10.23;9.23;;;;;;;20.54;24.33;95013.09;6051961;28;109337;-55
2024/01/12 06:45:54;;;;;;;9.53;8.67;;;;;;;20.44;24.42;95015.94;6052094;28;109469;-55
2024/01/12 06:48:57;;;;;;;10.40;9.43;;;;;;;20.40;24.41;95019.47;6046068;28;110929;-55
2024/01/12 06:52:00;;;;;;;10.70;9.80;;;;;;;20.39;24.33;95013.38;6062138;28;109356;-55
2024/01/12 06:55:03;;;;;;;9.67;8.77;;;;;;;20.38;24.41;95017.13;6051190;28;110376;-55
2024/01/12 06:58:08;;;;;;;10.50;9.50;;;;;;;20.37;24.21;95023.53;6061833;28;108983;-57
2024/01/12 07:01:11;;;;;;;9.77;8.90;;;;;;;20.40;24.26;95014.94;6062553;28;110214;-56
2024/01/12 07:04:15;;;;;;;9.03;8.23;;;;;;;20.50;24.09;95022.75;6062097;28;109029;-56
2024/01/12 07:07:18;;;;;;;10.30;9.30;;;;;;;20.71;23.95;95019.69;6051191;28;109002;-56
2024/01/12 07:10:21;;;;;;;9.77;8.87;;;;;;;20.83;23.58;95031.34;6044929;28;110355;-56
2024/01/12 07:13:25;;;;;;;9.93;8.90;;;;;;;20.99;23.58;95029.16;6038321;28;109544;-56
2024/01/12 07:16:28;;;;;;;10.00;9.00;;;;;;;20.93;23.33;95036.47;6033752;28;110069;-57
2024/01/12 07:19:32;;;;;;;9.80;8.90;;;;;;;;;;6042913;28;109432;-56
2024/01/12 07:22:35;;;;;;;10.53;9.63;;;;;;;20.98;23.34;95042.78;6061638;28;109103;-56
2024/01/12 07:25:38;;;;;;;10.23;9.20;;;;;;;21.03;23.14;95048.00;6061162;28;110281;-56
2024/01/12 07:28:43;;;;;;;10.47;9.50;;;;;;;21.03;23.41;95045.34;6049320;28;110134;-56
2024/01/12 07:31:46;;;;;;;10.33;9.03;;;;;;;21.23;23.56;95047.59;6061731;28;109122;-57
2024/01/12 07:34:49;;;;;;;10.47;9.47;;;;;;;21.29;23.51;95048.25;6061564;28;110248;-57
2024/01/12 07:37:53;;;;;;;10.33;9.33;;;;;;;21.28;23.12;95058.13;6061553;28;109096;-57
2024/01/12 07:40:56;;;;;;;10.17;9.17;;;;;;;21.25;23.19;95058.72;6051836;28;110009;-57
2024/01/12 07:44:00;;;;;;;9.33;8.53;;;;;;;21.27;23.14;95071.72;6061279;28;109243;-57
2024/01/12 07:47:03;;;;;;;10.10;9.10;;;;;;;21.26;24.36;95070.94;6061550;28;109764;-56
2024/01/12 07:50:08;;;;;;;10.50;9.50;;;;;;;21.29;23.40;95091.63;6046541;28;109214;-57
2024/01/12 07:53:11;;;;;;;11.10;10.00;;;;;;;21.33;23.48;95089.94;6031955;28;110135;-60
2024/01/12 07:56:14;;;;;;;10.73;9.63;;;;;;;21.19;23.58;95091.88;6037054;28;109548;-60
2024/01/12 07:59:19;;;;;;;10.10;9.10;;;;;;;21.12;23.54;95096.78;6038127;28;109434;-60
2024/01/12 08:02:22;;;;;;;12.20;11.00;;;;;;;21.06;23.22;95100.66;6027757;28;109299;-60
2024/01/12 08:05:28;;;;;;;10.70;9.60;;;;;;;21.05;23.54;95085.78;6052592;28;110653;-60
2024/01/12 08:08:35;;;;;;;10.70;9.70;;;;;;;21.02;23.44;95089.00;6061213;28;110019;-59
2024/01/12 08:11:38;;;;;;;12.63;11.33;;;;;;;20.99;23.41;95094.88;6061310;28;108996;-60
2024/01/12 08:14:44;;;;;;;12.13;10.90;;;;;;;20.97;23.51;95094.41;6049348;28;109072;-60
2024/01/12 08:17:47;;;;;;;11.47;10.37;;;;;;;20.92;23.17;95093.44;6061325;28;109061;-60
2024/01/12 08:20:51;;;;;;;12.73;11.47;;;;;;;20.93;23.34;95102.19;6043808;28;110031;-60
2024/01/12 08:23:54;;;;;;;11.30;10.20;;;;;;;20.90;23.42;95116.88;6037657;28;109872;-60
2024/01/12 08:26:57;;;;;;;12.30;11.10;;;;;;;20.90;23.14;95108.13;6026035;28;110027;-60
2024/01/12 08:30:03;;;;;;;11.40;10.30;;;;;;;20.88;23.39;95108.41;6047460;28;109092;-60
2024/01/12 08:33:06;;;;;;;12.80;11.53;;;;;;;20.84;23.17;95104.78;6061350;28;110178;-60
2024/01/12 08:36:09;;;;;;;12.20;10.97;;;;;;;20.86;23.46;95115.13;6054990;28;109079;-58
2024/01/12 08:39:13;;;;;;;12.70;11.40;;;;;;;20.85;23.30;95126.84;6056469;28;110056;-61
2024/01/12 08:42:16;;;;;;;12.47;11.17;;;;;;;20.84;23.32;95123.38;6063371;28;109265;-60
2024/01/12 08:45:20;;;;;;;11.87;10.70;;;;;;;20.83;23.34;95134.28;6060544;28;109204;-60
2024/01/12 08:48:23;;;;;;;12.37;11.13;;;;;;;20.81;23.36;95118.63;6030307;28;109521;-60
2024/01/12 08:51:27;;;;;;;12.17;10.97;;;;;;;20.80;23.51;95127.69;6061134;28;111359;-60
2024/01/12 08:54:30;;;;;;;14.67;13.17;;;;;;;20.80;23.34;95129.56;6063836;28;109096;-60
2024/01/12 08:57:35;;;;;;;13.83;12.43;;;;;;;20.78;23.32;95123.75;6063364;28;110011;-60
2024/01/12 09:00:40;;;;;;;13.10;11.90;;;;;;;20.75;23.09;95130.47;6053686;28;110399;-60
2024/01/12 09:03:43;;;;;;;12.90;11.60;;;;;;;20.74;23.34;95133.41;6064695;28;109325;-60
2024/01/12 09:06:48;;;;;;;13.10;11.80;;;;;;;20.71;23.21;95144.66;6063771;28;110242;-60
2024/01/12 09:09:51;;;;;;;13.30;12.00;;;;;;;20.70;23.62;95146.53;6058730;28;109088;-60
2024/01/12 09:12:55;;;;;;;13.70;12.30;;;;;;;20.68;23.39;95143.38;6058220;28;110243;-60
2024/01/12 09:15:59;;;;;;;14.20;12.80;;;;;;;20.66;23.48;95145.50;6055342;28;109094;-60
2024/01/12 09:19:02;;;;;;;14.23;12.83;;;;;;;20.66;23.62;95137.53;6040553;28;110452;-59
2024/01/12 09:22:06;;;;;;;15.93;14.37;;;;;;;20.67;23.53;95147.13;6030205;28;109483;-57
2024/01/12 09:25:09;;;;;;;15.80;14.20;;;;;;;20.69;23.46;95144.94;6048629;28;109954;-60
2024/01/12 09:28:12;;;;;;;15.83;14.23;;;;;;;20.73;23.22;95145.13;6062760;28;109251;-62
2024/01/12 09:31:16;;;;;;;15.77;14.07;;;;;;;20.81;23.25;95131.94;6063819;28;110123;-61
2024/01/12 09:34:20;;;;;;;16.90;15.10;;;;;;;20.89;23.13;95135.78;6052891;28;110487;-59
2024/01/12 09:37:23;;;;;;;47.53;43.73;;;;;;;20.91;23.41;95130.97;6063722;28;110032;-60
2024/01/12 09:40:26;;;;;;;53.87;49.53;;;;;;;20.93;23.55;95131.47;6062941;28;109682;-59
2024/01/12 09:43:29;;;;;;;48.70;44.60;;;;;;;;;;6063359;28;109120;-59
2024/01/12 09:46:42;;;;;;;47.30;42.97;;;;;;;20.94;23.57;95133.03;6041866;28;110063;-60
2024/01/12 09:49:45;;;;;;;43.40;39.60;;;;;;;20.92;23.49;95122.69;6044538;28;109174;-60
2024/01/12 09:52:48;;;;;;;41.17;37.43;;;;;;;20.86;23.67;95129.19;6062385;28;109935;-61
2024/01/12 09:55:52;;;;;;;36.87;33.53;;;;;;;20.84;23.85;95127.91;6041520;28;109257;-60
2024/01/12 09:59:08;;;;;;;37.10;33.80;;;;;;;20.82;24.03;95128.19;6038933;28;109201;-60
2024/01/12 10:02:14;;;;;;;35.57;32.30;;;;;;;20.80;23.95;95130.38;6039454;28;109097;-60
2024/01/12 10:05:17;;;;;;;34.30;31.10;;;;;;;20.76;23.77;95134.69;6039950;28;109313;-60
2024/01/12 10:08:20;;;;;;;33.33;30.27;;;;;;;20.79;23.76;95133.31;6028544;28;109176;-61
2024/01/12 10:11:23;;;;;;;32.67;29.73;;;;;;;20.77;23.90;95124.84;6039627;28;110116;-60
2024/01/12 10:14:26;;;;;;;31.10;28.10;;;;;;;20.77;23.66;95122.19;6038503;28;109515;-56
2024/01/12 10:17:33;;;;;;;28.53;25.83;;;;;;;20.78;23.72;95124.56;6039557;28;110067;-53
2024/01/12 10:20:37;;;;;;;29.53;26.63;;;;;;;20.78;23.59;95129.88;6029735;28;109764;-54
2024/01/12 10:23:40;;;;;;;27.60;25.10;;;;;;;20.79;23.81;95133.31;6039120;28;109230;-55
2024/01/12 10:26:43;;;;;;;27.30;24.70;;;;;;;20.80;23.87;95148.19;6039429;28;109213;-54
2024/01/12 10:29:46;;;;;;;27.43;24.63;;;;;;;20.79;23.45;95150.06;6032652;28;109252;-56
2024/01/12 10:32:52;;;;;;;27.57;24.90;;;;;;;20.79;23.46;95154.59;6036051;28;108854;-56
2024/01/12 10:36:06;;;;;;;27.47;24.67;;;;;;;20.78;23.60;95151.16;6039952;28;109317;-53
2024/01/12 10:39:11;;;;;;;27.30;24.40;;;;;;;20.77;23.83;95149.56;6039682;28;109848;-54
2024/01/12 10:42:16;;;;;;;25.17;22.63;;;;;;;20.76;23.56;95137.34;6028327;28;109612;-54
2024/01/12 10:45:22;;;;;;;26.80;24.10;;;;;;;20.75;23.60;95127.81;6039048;28;109039;-54
2024/01/12 10:48:29;;;;;;;24.83;22.20;;;;;;;20.75;23.67;95132.34;6039329;28;109520;-54
2024/01/12 10:51:37;;;;;;;24.83;22.33;;;;;;;20.74;23.70;95133.41;6053529;28;109221;-54
2024/01/12 10:54:50;;;;;;;26.77;24.07;;;;;;;20.74;23.75;95133.41;6052293;28;109264;-55
2024/01/12 10:57:55;;;;;;;24.17;21.57;;;;;;;20.71;23.46;95124.16;6038673;28;109120;-54
2024/01/12 11:00:59;;;;;;;24.47;21.87;;;;;;;20.72;23.56;95131.06;6038267;28;110140;-54
2024/01/12 11:04:05;;;;;;;26.93;24.20;;;;;;;20.74;23.78;95134.22;6029354;28;111103;-55
2024/01/12 11:07:11;;;;;;;24.67;22.17;;;;;;;20.74;23.46;95138.75;6037776;28;109543;-55
2024/01/12 11:10:15;;;;;;;24.23;21.70;;;;;;;20.73;23.63;95137.94;6038847;28;109290;-55
2024/01/12 11:13:19;;;;;;;26.73;23.37;;;;;;;20.74;23.57;95138.75;6038474;28;110158;-55
2024/01/12 11:16:22;;;;;;;25.20;22.50;;;;;;;20.74;23.78;95139.53;6028523;28;111138;-55
2024/01/12 11:19:27;;;;;;;25.03;21.90;;;;;;;20.75;23.77;95135.00;6038438;28;109328;-55
2024/01/12 11:22:31;;;;;;;24.33;21.83;;;;;;;20.75;23.53;95127.03;6038880;28;110122;-55
2024/01/12 11:25:34;;;;;;;24.53;21.93;;;;;;;20.77;23.62;95136.28;6038334;28;109169;-56
2024/01/12 11:28:38;;;;;;;23.20;20.80;;;;;;;20.79;23.61;95134.09;6027777;28;109215;-56
2024/01/12 11:31:49;;;;;;;23.43;20.93;;;;;;;20.88;23.37;95129.69;6037706;28;109307;-56
2024/01/12 11:35:09;;;;;;;24.27;21.67;;;;;;;20.91;23.62;95130.97;6038355;28;110070;-56
2024/01/12 11:38:12;;;;;;;25.47;22.00;;;;;;;20.88;23.68;95128.91;6028397;28;110631;-56
2024/01/12 11:41:17;;;;;;;23.23;20.83;;;;;;;20.89;23.76;95136.59;6037343;28;109830;-56
2024/01/12 11:44:20;;;;;;;23.80;21.17;;;;;;;20.88;23.88;95150.97;6037683;28;109085;-55
2024/01/12 11:47:23;;;;;;;24.40;21.67;;;;;;;20.89;23.90;95138.47;6037903;28;109213;-56
2024/01/12 11:50:28;;;;;;;24.60;21.87;;;;;;;20.87;23.98;95136.09;6031770;28;110056;-55
2024/01/12 11:53:32;;;;;;;24.10;21.53;;;;;;;20.87;24.03;95130.78;6061665;28;109265;-56
2024/01/12 11:56:36;;;;;;;25.17;21.37;;;;;;;20.87;23.94;95136.09;6061289;28;109941;-56
2024/01/12 11:59:39;;;;;;;24.67;21.00;;;;;;;20.88;24.02;95136.88;6061328;28;109106;-56
2024/01/12 12:02:42;;;;;;;24.50;20.80;;;;;;;20.86;24.12;95128.41;6049991;28;109440;-56
2024/01/12 12:05:53;;;;;;;23.87;21.37;;;;;;;20.88;23.91;95145.66;6061240;28;110006;-56
2024/01/12 12:08:58;;;;;;;24.13;20.60;;;;;;;20.79;24.29;95149.28;6061194;28;109315;-55
2024/01/12 12:12:01;;;;;;;23.67;21.17;;;;;;;20.74;24.07;95152.81;6055602;28;109005;-56
2024/01/12 12:15:05;;;;;;;23.47;21.10;;;;;;;20.70;24.34;95170.47;6055253;28;109067;-55
2024/01/12 12:18:09;;;;;;;23.57;21.10;;;;;;;20.71;24.09;95157.94;6060681;28;110017;-56
2024/01/12 12:21:14;;;;;;;23.80;21.10;;;;;;;20.69;24.17;95152.94;6053496;28;109343;-55
2024/01/12 12:24:17;;;;;;;22.20;19.80;;;;;;;20.68;24.08;95154.00;6027008;28;108997;-59
2024/01/12 12:27:20;;;;;;;22.77;20.37;;;;;;;20.68;24.40;95167.31;6037060;28;109261;-60
2024/01/12 12:30:28;;;;;;;22.10;19.67;;;;;;;20.67;24.03;95171.03;6037508;28;110229;-60
2024/01/12 12:33:31;;;;;;;22.80;20.40;;;;;;;20.67;24.34;95164.91;6036755;28;109624;-58
2024/01/12 12:36:36;;;;;;;22.67;19.90;;;;;;;20.66;24.16;95174.75;6044499;28;109072;-57
2024/01/12 12:39:40;;;;;;;21.97;19.77;;;;;;;20.60;23.96;95165.31;6052278;28;109053;-57
2024/01/12 12:42:45;;;;;;;21.67;19.33;;;;;;;20.56;24.26;95159.00;6042460;28;109583;-57
2024/01/12 12:45:51;;;;;;;24.07;21.53;;;;;;;20.58;24.19;95156.84;6037050;28;110098;-57
2024/01/12 12:48:55;;;;;;;22.50;20.20;;;;;;;20.57;24.28;95161.38;6055754;28;109288;-57
2024/01/12 12:52:01;;;;;;;23.47;21.03;;;;;;;20.57;24.07;95171.22;6060695;28;109092;-57
2024/01/12 12:55:05;;;;;;;22.47;19.63;;;;;;;20.55;23.96;95174.16;6061045;28;111041;-57
2024/01/12 12:58:08;;;;;;;45.07;21.57;;;;;;;20.57;24.14;95165.91;6050227;28;110172;-57
2024/01/12 13:01:14;;;;;;;41.43;23.97;;;;;;;20.56;23.92;95159.78;6060391;28;109179;-57
2024/01/12 13:04:17;;;;;;;32.60;22.77;;;;;;;20.59;24.42;95163.72;6059710;28;109188;-58
2024/01/12 13:07:21;;;;;;;32.30;21.50;;;;;;;20.89;24.96;95165.06;6044435;28;109581;-59
2024/01/12 13:10:25;;;;;;;31.30;20.53;;;;;;;20.86;23.85;95165.66;6026210;28;109320;-58
2024/01/12 13:13:28;;;;;;;40.37;22.77;;;;;;;20.69;24.04;95166.22;6036764;28;108995;-57
2024/01/12 13:16:31;;;;;;;30.03;20.70;;;;;;;20.61;23.94;95169.53;6036473;28;109132;-57
2024/01/12 13:19:34;;;;;;;31.60;21.53;;;;;;;20.71;24.16;95169.38;6042021;28;109230;-57
2024/01/12 13:22:39;;;;;;;28.60;22.87;;;;;;;20.75;23.97;95167.69;6052739;28;109026;-57
2024/01/12 13:25:43;;;;;;;26.53;19.40;;;;;;;20.67;24.07;95171.03;6045524;28;110588;-58
2024/01/12 13:28:46;;;;;;;20.87;17.93;;;;;;;20.62;23.97;95184.41;6040780;28;110184;-57
2024/01/12 13:31:49;;;;;;;24.73;20.43;;;;;;;20.58;24.30;95186.09;6054016;28;110049;-56
2024/01/12 13:34:52;;;;;;;24.70;18.67;;;;;;;20.56;24.21;95178.41;6062565;28;109133;-58
2024/01/12 13:37:57;;;;;;;22.83;18.93;;;;;;;20.57;24.16;95185.28;6063908;28;109495;-58
2024/01/12 13:41:00;;;;;;;23.27;19.10;;;;;;;20.57;24.05;95193.28;6063804;28;108999;-60
2024/01/12 13:44:04;;;;;;;21.20;18.90;;;;;;;20.57;24.05;95181.84;6048184;28;109045;-61
2024/01/12 13:47:07;;;;;;;20.30;18.10;;;;;;;20.57;23.95;95197.78;6064251;28;111512;-59
2024/01/12 13:50:11;;;;;;;23.30;20.10;;;;;;;20.54;23.95;95195.72;6063536;28;111117;-59
2024/01/12 13:53:18;;;;;;;23.73;19.30;;;;;;;20.54;23.89;95193.84;6064016;28;109358;-62
2024/01/12 13:56:21;;;;;;;21.33;18.90;;;;;;;20.53;24.00;95194.94;6052222;28;109759;-60
2024/01/12 13:59:24;;;;;;;21.27;18.97;;;;;;;20.52;23.77;95189.91;6063387;28;109362;-59
2024/01/12 14:02:28;;;;;;;20.90;18.07;;;;;;;20.52;23.99;95201.34;6063521;28;109232;-59